Portada
METAR-TAF:

METAR-TAF

Aeroports :

Aeroport de Jiddah Rei Abdulaziz

Jiddah, Aràbia Saudita

latitud: 21-42N, longitud: 039-11E, altitud: 15 m

Observació

L'informe es va fer fa 53 minuts, a les 02:00 UTC
Vent 4 kt del Oest/Sud-Oest
Temperatura 30°C
Humitat 75%
Pressió 1003 hPa
Visibilitat 10 km o més
sense núvols per sota de 1500 mi sense presència de cumulonimbus.

METAR: OEJN 200200Z 24004KT CAVOK 30/25 Q1003 NOSIG

Hora: 05:53 (02:53 UTC)

Pronòstic

L'informe es va fer fa 3 hores i 53 minuts, a les 23:00 UTC
Pronòstic vàlid del 20 a les 00 UTC al 21 a les 06 UTC
Vent 3 kt amb direcció variable
Visibilitat: 7000 m
Evolucionant progressivament
l' 20 a les 08 UTC al 20 a les 10 UTC
Vent 15 kt del Oest

TAF: OEJN 192300Z 2000/2106 VRB03KT 7000 NSC BECMG 2008/2010 27015KT

Observacions i pronòstics meteorològics de més de 4000 aeroports (METAR i TAF).

Les estacions disponibles són els punts grocs i vermells al mapa.

Posi el ratolí al punt desitjat per veure el nom de l'estació.

Feu clic per veure les observacions i els pronòstics meteorològics.

Per canviar el mapa: feu clic els botons verds amb una creu de color negre per apropar; al botó verd amb un guió per allunyar la imatge; o en les fletxes verdes per a mapes adjacents.


METAR-TAF: